Time;durP1;ratioP1;P1;durP2;ratioP2;P2;SDS_P1;SDS_P2;PMS_P1;PMS_P2;Temp;Humidity;BMP_temperature;BMP_pressure;BME280_temperature;BME280_humidity;BME280_pressure;Samples;Min_cycle;Max_cycle;Signal;HPM_P1;HPM_P2
2024/01/30 04:57:14;;;;;;;40.40;25.67;;;;;;;0.94;79.83;102885.94;5605961;31;78554;-57
2024/01/30 05:00:17;;;;;;;41.10;24.58;;;;;;;0.94;79.83;102885.94;5583581;32;33488;-56
2024/01/30 05:03:19;;;;;;;37.67;22.40;;;;;;;0.41;80.37;102894.75;5583665;31;33693;-56
2024/01/30 05:06:26;;;;;;;36.45;23.95;;;;;;;0.43;85.18;102903.38;5583544;32;33515;-57
2024/01/30 05:09:28;;;;;;;39.63;23.15;;;;;;;0.74;78.52;102913.53;5583631;32;33733;-56
2024/01/30 05:12:31;;;;;;;33.70;21.92;;;;;;;0.72;77.94;102910.19;5583525;31;34201;-56
2024/01/30 05:15:33;;;;;;;157.27;30.02;;;;;;;0.83;76.73;102915.25;5583445;32;34162;-56
2024/01/30 05:18:36;;;;;;;69.97;27.58;;;;;;;0.71;99.54;102916.47;5583477;32;33787;-56
2024/01/30 05:21:38;;;;;;;34.55;22.02;;;;;;;0.53;100.00;102916.50;5583422;32;33557;-56
2024/01/30 05:24:42;;;;;;;41.03;22.67;;;;;;;0.38;87.87;102924.09;5583501;31;33604;-56
2024/01/30 05:27:44;;;;;;;36.88;22.62;;;;;;;0.55;86.28;102934.81;5583326;32;33701;-57
2024/01/30 05:30:47;;;;;;;34.50;23.35;;;;;;;0.51;79.13;102936.09;5583423;31;33700;-56
2024/01/30 05:33:49;;;;;;;35.90;21.75;;;;;;;0.61;79.38;102929.75;5583273;31;33709;-56
2024/01/30 05:36:52;;;;;;;36.40;22.67;;;;;;;0.66;77.78;102937.22;5583351;32;33576;-57
2024/01/30 05:39:54;;;;;;;37.13;22.20;;;;;;;0.33;86.67;102939.56;5583395;31;33674;-57
2024/01/30 05:43:00;;;;;;;35.72;22.65;;;;;;;0.36;82.49;102933.12;5583318;32;33565;-56
2024/01/30 05:46:03;;;;;;;68.60;25.80;;;;;;;0.34;82.99;102941.22;5573167;32;34342;-56
2024/01/30 05:49:05;;;;;;;43.08;23.85;;;;;;;0.29;92.35;102943.44;5563670;32;34355;-57
2024/01/30 05:52:08;;;;;;;98.60;27.42;;;;;;;0.18;89.44;102944.50;5563567;32;34300;-56
2024/01/30 05:55:12;;;;;;;51.97;26.37;;;;;;;0.21;100.00;102933.66;5563399;32;33675;-56
2024/01/30 05:58:14;;;;;;;411.15;49.45;;;;;;;0.18;99.31;102938.41;5563463;32;33641;-56
2024/01/30 06:01:20;;;;;;;37.95;24.55;;;;;;;0.02;100.00;102936.41;5563519;32;33721;-56
2024/01/30 06:04:23;;;;;;;89.03;27.92;;;;;;;0.22;86.30;102932.66;5563380;32;34381;-57
2024/01/30 06:07:25;;;;;;;289.48;45.30;;;;;;;0.12;97.31;102939.81;5555521;32;34356;-56
2024/01/30 06:10:28;;;;;;;45.67;25.37;;;;;;;0.18;100.00;102943.69;5550469;32;34279;-57
2024/01/30 06:13:31;;;;;;;37.22;25.02;;;;;;;0.01;90.97;102941.84;5550525;32;34225;-57
2024/01/30 06:16:34;;;;;;;41.97;25.62;;;;;;;0.37;94.15;102942.72;5550135;32;33158;-56
2024/01/30 06:19:36;;;;;;;39.50;24.48;;;;;;;0.33;81.89;102943.97;5550346;32;34276;-56
2024/01/30 06:22:39;;;;;;;37.53;25.10;;;;;;;0.38;79.38;102933.81;5550714;32;34222;-56
2024/01/30 06:25:41;;;;;;;353.77;51.95;;;;;;;0.26;84.65;102943.75;5558604;32;34402;-57
2024/01/30 06:28:44;;;;;;;48.13;27.45;;;;;;;0.65;100.00;102946.13;5561226;32;33507;-56
2024/01/30 06:31:46;;;;;;;503.10;59.70;;;;;;;0.43;97.82;102947.38;5563868;32;33757;-56
2024/01/30 06:34:49;;;;;;;157.27;37.03;;;;;;;0.26;100.00;102948.19;5558101;32;33620;-56
2024/01/30 06:37:51;;;;;;;44.92;29.17;;;;;;;0.60;100.00;102949.22;5564570;32;33757;-56
2024/01/30 06:40:53;;;;;;;39.95;26.83;;;;;;;0.31;86.18;102957.34;5549624;32;33641;-57
2024/01/30 06:43:56;;;;;;;46.03;26.48;;;;;;;0.21;88.53;102965.31;5550553;32;34248;-56
2024/01/30 06:46:58;;;;;;;68.10;26.55;;;;;;;0.31;93.89;102954.69;5550732;32;33852;-56
2024/01/30 06:50:02;;;;;;;37.45;26.30;;;;;;;0.38;95.23;102952.28;5551152;32;33528;-54
2024/01/30 06:53:05;;;;;;;37.22;24.20;;;;;;;0.44;82.28;102952.53;5566799;32;33722;-54
2024/01/30 06:56:07;;;;;;;43.58;27.83;;;;;;;0.41;83.29;102950.19;5567775;32;34237;-55
2024/01/30 06:59:10;;;;;;;79.78;30.60;;;;;;;0.24;87.31;102956.28;5552454;32;33540;-55
2024/01/30 07:02:12;;;;;;;39.50;27.55;;;;;;;0.59;100.00;102954.63;5551809;32;33741;-54
2024/01/30 07:05:15;;;;;;;45.35;27.05;;;;;;;0.37;90.45;102953.28;5559870;32;34302;-54
2024/01/30 07:08:17;;;;;;;40.47;27.05;;;;;;;0.63;94.49;102956.84;5550631;32;33583;-53
2024/01/30 07:11:24;;;;;;;53.28;26.23;;;;;;;0.61;89.26;102957.97;5553104;32;32544;-54
2024/01/30 07:14:26;;;;;;;260.45;42.53;;;;;;;0.70;85.47;102960.53;5567866;32;33657;-55
2024/01/30 07:17:29;;;;;;;1007.45;125.53;;;;;;;0.98;100.00;102959.59;5566129;32;33270;-54
2024/01/30 07:20:31;;;;;;;170.43;34.45;;;;;;;1.03;93.55;102954.69;5567273;32;34395;-54
2024/01/30 07:23:34;;;;;;;47.35;26.62;;;;;;;1.22;95.07;102954.47;5563184;32;33708;-55
2024/01/30 07:26:37;;;;;;;46.63;28.15;;;;;;;1.14;100.00;102965.00;5557720;32;33588;-55
2024/01/30 07:29:39;;;;;;;38.92;26.95;;;;;;;1.25;100.00;102962.09;5567825;32;34358;-55
2024/01/30 07:32:41;;;;;;;51.10;29.70;;;;;;;1.29;83.02;102954.69;5563926;32;33524;-57
2024/01/30 07:35:45;;;;;;;47.20;28.27;;;;;;;1.24;96.12;102951.69;5559193;32;34384;-54
2024/01/30 07:38:48;;;;;;;54.22;30.90;;;;;;;1.27;84.09;102952.22;5554601;32;33680;-54
2024/01/30 07:41:50;;;;;;;48.05;29.60;;;;;;;1.61;100.00;102946.13;5558637;32;33789;-54
2024/01/30 07:44:53;;;;;;;48.85;30.30;;;;;;;1.39;90.73;102944.84;5549280;32;33599;-54
2024/01/30 07:47:55;;;;;;;53.65;32.95;;;;;;;1.47;89.34;102947.53;5551711;32;33687;-54
2024/01/30 07:50:57;;;;;;;49.13;30.08;;;;;;;1.72;95.53;102952.94;5558163;32;33684;-54
2024/01/30 07:54:00;;;;;;;52.65;31.83;;;;;;;1.69;83.25;102945.31;5564961;32;34411;-55
2024/01/30 07:57:02;;;;;;;49.47;32.47;;;;;;;1.88;100.00;102940.62;5558087;32;33316;-54
2024/01/30 08:00:07;;;;;;;50.05;32.25;;;;;;;2.03;100.00;102940.03;5558139;32;33577;-56
2024/01/30 08:03:09;;;;;;;50.03;31.92;;;;;;;1.88;100.00;102940.62;5557839;32;34545;-56
2024/01/30 08:06:12;;;;;;;56.00;31.45;;;;;;;2.01;99.33;102944.66;5550132;32;33634;-56
2024/01/30 08:09:14;;;;;;;47.95;30.50;;;;;;;2.12;87.50;102947.84;5559788;32;34332;-56
2024/01/30 08:12:17;;;;;;;42.80;29.85;;;;;;;2.28;88.65;102947.03;5562519;32;33575;-56
2024/01/30 08:15:19;;;;;;;45.40;31.05;;;;;;;2.42;87.96;102947.38;5555189;32;33700;-56
2024/01/30 08:18:21;;;;;;;50.90;31.00;;;;;;;2.81;100.00;102956.41;5562838;32;34219;-56
2024/01/30 08:21:24;;;;;;;39.95;25.60;;;;;;;2.75;92.92;102951.75;5559691;32;33645;-56
2024/01/30 08:24:27;;;;;;;35.17;24.50;;;;;;;2.97;87.42;102946.78;5560256;32;34280;-56
2024/01/30 08:27:29;;;;;;;40.33;24.65;;;;;;;3.18;100.00;102951.53;5560826;32;34371;-56
2024/01/30 08:30:31;;;;;;;37.72;24.45;;;;;;;3.65;100.00;102951.63;5555786;32;34314;-56
2024/01/30 08:33:34;;;;;;;39.13;24.85;;;;;;;3.98;100.00;102952.31;5563473;32;34230;-56
2024/01/30 08:36:37;;;;;;;38.38;23.73;;;;;;;4.32;100.00;102959.09;5559805;32;33801;-56
2024/01/30 08:39:39;;;;;;;35.03;20.05;;;;;;;4.15;100.00;102957.53;5559960;32;33128;-56
2024/01/30 08:42:42;;;;;;;30.48;18.98;;;;;;;4.26;94.96;102964.28;5563231;32;34338;-56
2024/01/30 08:45:46;;;;;;;33.25;22.33;;;;;;;4.34;100.00;102969.53;5553046;32;33590;-56
2024/01/30 08:48:48;;;;;;;36.92;24.63;;;;;;;4.55;100.00;102972.41;5564411;32;34330;-56
2024/01/30 08:51:51;;;;;;;40.17;27.10;;;;;;;4.67;100.00;102973.66;5553123;32;33499;-56
2024/01/30 08:54:54;;;;;;;35.88;22.98;;;;;;;4.57;100.00;102967.75;5562580;32;34347;-56
2024/01/30 08:57:56;;;;;;;31.08;21.90;;;;;;;4.39;90.19;102967.19;5551386;32;33692;-56
2024/01/30 09:01:00;;;;;;;34.35;21.08;;;;;;;4.72;100.00;102965.16;5567169;32;33564;-56
2024/01/30 09:04:02;;;;;;;33.13;22.70;;;;;;;4.94;100.00;102960.81;5552337;32;33337;-56
2024/01/30 09:07:08;;;;;;;32.45;22.87;;;;;;;4.55;92.23;102951.16;5564555;32;34263;-56
2024/01/30 09:10:11;;;;;;;35.25;24.10;;;;;;;4.80;100.00;102958.94;5560913;32;33677;-59
2024/01/30 09:13:16;;;;;;;38.13;24.30;;;;;;;4.88;100.00;102953.56;5564684;32;33654;-60
2024/01/30 09:16:18;;;;;;;34.03;23.38;;;;;;;4.73;100.00;102948.19;5563683;32;33711;-60
2024/01/30 09:19:21;;;;;;;38.53;25.37;;;;;;;4.51;93.58;102949.03;5564013;32;33669;-60
2024/01/30 09:22:23;;;;;;;37.45;25.42;;;;;;;4.89;100.00;102947.22;5562117;32;34320;-59
2024/01/30 09:25:26;;;;;;;40.10;25.58;;;;;;;5.07;100.00;102954.91;5560035;32;33520;-60
2024/01/30 09:28:28;;;;;;;39.92;26.33;;;;;;;5.03;100.00;102954.41;5558112;32;33636;-60
2024/01/30 09:31:31;;;;;;;33.78;24.42;;;;;;;5.25;100.00;102952.72;5556937;32;33579;-59
2024/01/30 09:34:33;;;;;;;35.97;24.67;;;;;;;5.01;85.14;102948.47;5550944;32;33635;-59
2024/01/30 09:37:36;;;;;;;43.15;25.55;;;;;;;4.89;83.25;102953.38;5564400;32;33926;-59
2024/01/30 09:40:38;;;;;;;34.55;23.92;;;;;;;5.23;100.00;102946.78;5562581;32;34288;-59
2024/01/30 09:43:48;;;;;;;40.80;26.62;;;;;;;5.34;100.00;102943.66;5562860;32;33749;-61
2024/01/30 09:46:50;;;;;;;40.22;26.70;;;;;;;5.67;100.00;102942.47;5561193;32;34383;-60
2024/01/30 09:49:53;;;;;;;38.10;25.52;;;;;;;5.53;94.84;102944.97;5553300;32;34283;-60
2024/01/30 09:52:57;;;;;;;35.10;25.70;;;;;;;5.29;82.72;102935.37;5566468;32;34269;-60
2024/01/30 09:56:02;;;;;;;36.92;23.90;;;;;;;5.37;100.00;102937.97;5561949;32;33980;-59
2024/01/30 09:59:04;;;;;;;32.30;23.27;;;;;;;5.31;97.64;102941.34;5562578;32;33663;-59
2024/01/30 10:02:07;;;;;;;36.80;23.83;;;;;;;5.61;100.00;102946.69;5567953;32;33845;-59
2024/01/30 10:05:15;;;;;;;33.38;23.20;;;;;;;5.65;93.34;102954.09;5558170;32;34415;-60
2024/01/30 10:08:19;;;;;;;31.08;21.45;;;;;;;5.68;95.63;102946.78;5557610;32;33469;-60
2024/01/30 10:11:22;;;;;;;35.42;23.48;;;;;;;6.05;100.00;102945.84;5556987;32;34339;-60
2024/01/30 10:14:25;;;;;;;37.03;24.50;;;;;;;6.29;100.00;102947.31;5565690;32;33754;-58
2024/01/30 10:17:28;;;;;;;30.70;23.60;;;;;;;6.25;94.25;102946.88;5563231;32;33656;-59
2024/01/30 10:20:36;;;;;;;33.45;25.05;;;;;;;6.06;100.00;102936.81;5561484;32;34357;-57
2024/01/30 10:23:38;;;;;;;35.45;24.37;;;;;;;6.26;100.00;102947.72;5564250;32;32390;-57
2024/01/30 10:26:43;;;;;;;39.72;25.55;;;;;;;5.91;86.76;102934.19;5558522;32;34286;-57
2024/01/30 10:29:48;;;;;;;42.00;26.33;;;;;;;6.04;100.00;102930.88;5557205;32;33654;-57
2024/01/30 10:32:51;;;;;;;38.05;24.33;;;;;;;5.84;85.92;102922.63;5555548;32;33671;-57
2024/01/30 10:36:04;;;;;;;35.70;25.40;;;;;;;5.70;84.41;102923.47;5558069;32;33647;-57
2024/01/30 10:39:07;;;;;;;40.30;27.10;;;;;;;6.14;100.00;102925.25;5559340;32;34211;-56
2024/01/30 10:42:19;;;;;;;43.22;26.05;;;;;;;6.11;100.00;102919.28;5559096;32;33723;-56
2024/01/30 10:45:22;;;;;;;36.42;24.73;;;;;;;6.21;91.67;102915.50;5566629;32;33644;-56
2024/01/30 10:48:30;;;;;;;32.33;23.85;;;;;;;6.56;100.00;102911.13;5562818;32;33114;-57
2024/01/30 10:51:32;;;;;;;37.63;25.48;;;;;;;6.88;100.00;102906.25;5558961;32;33745;-56
2024/01/30 10:54:36;;;;;;;37.08;25.40;;;;;;;7.13;100.00;102896.81;5554749;32;33956;-57
2024/01/30 10:57:38;;;;;;;35.45;24.85;;;;;;;7.19;100.00;102895.22;5561571;32;33764;-57
2024/01/30 11:00:42;;;;;;;34.58;22.35;;;;;;;6.71;82.06;102885.22;5566292;32;32295;-56
2024/01/30 11:03:44;;;;;;;26.77;19.77;;;;;;;6.45;81.36;102877.81;5561569;32;33685;-57
2024/01/30 11:06:49;;;;;;;28.85;20.65;;;;;;;6.38;92.11;102876.12;5556414;32;33591;-57
2024/01/30 11:09:57;;;;;;;28.00;19.20;;;;;;;6.39;81.47;102877.75;5568810;32;34417;-57
2024/01/30 11:13:10;;;;;;;28.35;18.67;;;;;;;6.60;87.48;102883.09;5568447;31;34104;-57
2024/01/30 11:16:12;;;;;;;27.10;19.45;;;;;;;6.54;78.58;102878.50;5564083;32;33812;-57
2024/01/30 11:19:15;;;;;;;26.98;19.30;;;;;;;6.77;90.24;102875.62;5566681;32;34367;-57
2024/01/30 11:22:20;;;;;;;28.90;20.33;;;;;;;6.63;92.60;102873.87;5562320;32;33729;-57
2024/01/30 11:25:25;;;;;;;30.13;20.17;;;;;;;6.89;93.96;102874.09;5564321;32;33578;-57
2024/01/30 11:28:33;;;;;;;25.23;18.92;;;;;;;6.63;80.98;102861.38;5565261;32;33848;-57
2024/01/30 11:31:36;;;;;;;25.37;19.02;;;;;;;6.70;81.57;102864.09;5564218;32;34343;-58
2024/01/30 11:34:41;;;;;;;25.88;18.58;;;;;;;7.02;100.00;102857.34;5560013;32;33747;-57
2024/01/30 11:37:49;;;;;;;26.58;17.60;;;;;;;7.19;100.00;102856.00;5561440;32;33660;-57
2024/01/30 11:40:51;;;;;;;27.75;19.10;;;;;;;7.25;91.92;102857.06;5560965;32;33897;-58
2024/01/30 11:43:54;;;;;;;23.38;17.42;;;;;;;7.13;86.56;102854.13;5555933;32;33718;-57
2024/01/30 11:46:57;;;;;;;24.02;17.40;;;;;;;6.84;77.11;102849.84;5558317;32;34549;-57
2024/01/30 11:49:59;;;;;;;25.50;18.48;;;;;;;6.77;85.29;102852.47;5552836;32;34389;-57
2024/01/30 11:53:04;;;;;;;26.17;17.98;;;;;;;6.72;78.16;102849.56;5553794;32;33267;-57
2024/01/30 11:56:07;;;;;;;27.65;18.27;;;;;;;7.20;100.00;102838.16;5557437;32;33687;-57
2024/01/30 11:59:09;;;;;;;24.35;16.83;;;;;;;7.51;100.00;102840.34;5557840;32;34354;-57
2024/01/30 12:02:19;;;;;;;23.98;16.17;;;;;;;7.25;82.75;102831.22;5550798;32;34377;-57
2024/01/30 12:05:23;;;;;;;28.48;18.23;;;;;;;7.51;100.00;102827.00;5554450;32;34294;-57
2024/01/30 12:08:25;;;;;;;26.62;17.15;;;;;;;7.49;98.81;102819.22;5562671;32;32581;-57
2024/01/30 12:11:29;;;;;;;23.02;15.50;;;;;;;7.59;100.00;102816.16;5554101;32;33698;-57
2024/01/30 12:14:32;;;;;;;22.60;15.50;;;;;;;7.30;77.79;102807.41;5559890;32;33605;-57
2024/01/30 12:17:35;;;;;;;23.52;15.05;;;;;;;7.51;94.34;102806.47;5567270;32;33586;-57
2024/01/30 12:20:37;;;;;;;20.12;14.27;;;;;;;7.12;76.22;102801.81;5555608;32;34332;-57
2024/01/30 12:23:40;;;;;;;21.95;13.88;;;;;;;7.22;82.21;102794.25;5558456;32;33618;-57
2024/01/30 12:26:42;;;;;;;20.98;15.07;;;;;;;6.96;77.26;102794.94;5556467;32;33754;-57
2024/01/30 12:29:45;;;;;;;20.23;12.73;;;;;;;6.91;74.96;102794.69;5561567;31;34265;-57
2024/01/30 12:32:50;;;;;;;18.73;12.73;;;;;;;6.85;75.47;102790.16;5553424;32;32289;-57
2024/01/30 12:35:53;;;;;;;16.33;11.52;;;;;;;6.99;92.81;102796.41;5553925;32;34905;-57
2024/01/30 12:39:04;;;;;;;18.50;11.57;;;;;;;7.74;100.00;102800.78;5559029;32;33757;-57
2024/01/30 12:42:07;;;;;;;16.67;11.40;;;;;;;7.79;90.23;102797.53;5564585;32;33818;-57
2024/01/30 12:45:10;;;;;;;14.82;10.80;;;;;;;7.92;100.00;102791.41;5568217;32;33885;-57
2024/01/30 12:48:14;;;;;;;14.93;10.35;;;;;;;7.89;75.48;102786.47;5567829;32;33856;-57
2024/01/30 12:51:16;;;;;;;21.48;10.90;;;;;;;7.61;79.35;102787.41;5548963;32;33367;-55
2024/01/30 12:54:19;;;;;;;15.80;9.82;;;;;;;7.35;78.74;102779.31;5566275;32;34317;-56
2024/01/30 12:57:21;;;;;;;14.82;9.73;;;;;;;7.37;71.95;102770.09;5565436;32;33799;-55
2024/01/30 13:00:24;;;;;;;13.55;10.07;;;;;;;7.36;81.28;102772.97;5566617;32;33594;-56
2024/01/30 13:03:26;;;;;;;17.08;10.10;;;;;;;7.26;74.08;102778.69;5567780;32;33761;-55
2024/01/30 13:06:29;;;;;;;16.75;10.60;;;;;;;7.28;75.29;102765.94;5566353;32;34348;-56
2024/01/30 13:09:32;;;;;;;12.23;8.48;;;;;;;7.31;91.74;102765.56;5567420;32;33714;-56
2024/01/30 13:12:35;;;;;;;15.15;10.25;;;;;;;7.47;77.35;102759.84;5566504;32;33351;-55
2024/01/30 13:15:37;;;;;;;15.88;10.45;;;;;;;7.50;94.95;102754.12;5562452;32;33922;-56
2024/01/30 13:18:40;;;;;;;13.52;9.15;;;;;;;7.61;79.72;102752.69;5569836;32;33839;-56
2024/01/30 13:21:42;;;;;;;14.15;9.77;;;;;;;7.48;72.65;102747.34;5566075;31;34255;-56
2024/01/30 13:24:45;;;;;;;21.48;10.52;;;;;;;7.58;83.02;102749.63;5570339;32;33610;-55
2024/01/30 13:27:47;;;;;;;16.30;10.68;;;;;;;7.67;86.04;102743.88;5569371;32;34588;-55
2024/01/30 13:30:50;;;;;;;15.63;9.80;;;;;;;7.59;69.96;102749.44;5567264;32;34018;-55
2024/01/30 13:33:53;;;;;;;15.43;9.82;;;;;;;7.60;72.04;102748.41;5568181;32;33683;-55
2024/01/30 13:36:56;;;;;;;16.33;10.32;;;;;;;7.76;71.68;102749.88;5570053;32;34467;-56
2024/01/30 13:39:58;;;;;;;15.07;11.20;;;;;;;7.58;65.83;102746.94;5569219;32;33167;-56
2024/01/30 13:43:01;;;;;;;16.98;10.75;;;;;;;7.47;67.42;102749.19;5558049;32;34261;-55
2024/01/30 13:46:03;;;;;;;16.83;10.98;;;;;;;7.40;65.76;102747.53;5569874;31;33481;-56
2024/01/30 13:49:06;;;;;;;20.20;11.25;;;;;;;7.39;75.34;102749.38;5569118;32;34300;-58
2024/01/30 13:52:09;;;;;;;15.73;11.20;;;;;;;7.43;71.98;102745.28;5569267;32;33881;-57
2024/01/30 13:55:11;;;;;;;37.88;23.45;;;;;;;7.34;68.02;102743.81;5569438;32;34361;-57
2024/01/30 13:58:13;;;;;;;49.20;32.10;;;;;;;7.78;83.37;102745.13;5568521;32;33785;-57
2024/01/30 14:01:16;;;;;;;24.12;16.80;;;;;;;7.85;94.03;102740.66;5565839;32;33755;-57
2024/01/30 14:04:20;;;;;;;20.15;16.15;;;;;;;8.08;89.81;102740.25;5565080;32;33615;-57
2024/01/30 14:07:22;;;;;;;15.55;11.38;;;;;;;7.74;65.61;102734.03;5569542;32;34357;-57
2024/01/30 14:10:25;;;;;;;14.02;10.88;;;;;;;7.47;62.63;102735.03;5569513;32;34380;-57
2024/01/30 14:13:28;;;;;;;28.33;25.35;;;;;;;7.36;63.67;102730.28;5568492;32;34323;-57
2024/01/30 14:16:30;;;;;;;18.45;12.65;;;;;;;7.50;74.55;102735.44;5569377;32;33713;-57
2024/01/30 14:19:34;;;;;;;15.43;10.35;;;;;;;7.42;77.56;102732.97;5569942;32;33502;-57
2024/01/30 14:22:37;;;;;;;22.27;11.90;;;;;;;7.33;64.89;102725.34;5568771;32;34337;-56
2024/01/30 14:25:39;;;;;;;15.82;11.20;;;;;;;7.39;89.98;102735.22;5569397;32;33681;-57
2024/01/30 14:28:43;;;;;;;16.05;10.50;;;;;;;7.80;93.06;102735.09;5567702;32;33639;-57
2024/01/30 14:31:46;;;;;;;14.55;10.38;;;;;;;7.58;64.84;102730.94;5569740;32;34386;-57
2024/01/30 14:34:48;;;;;;;19.05;11.50;;;;;;;7.41;79.67;102728.63;5569916;32;34455;-57
2024/01/30 14:37:51;;;;;;;16.60;11.30;;;;;;;7.47;73.46;102727.00;5568962;32;33660;-57
2024/01/30 14:40:53;;;;;;;13.85;10.40;;;;;;;7.38;66.48;102734.38;5570046;32;33663;-57
2024/01/30 14:43:55;;;;;;;14.50;10.40;;;;;;;7.24;83.52;102724.69;5569806;32;33657;-57
2024/01/30 14:46:58;;;;;;;16.35;11.27;;;;;;;7.25;70.93;102729.00;5568843;32;33645;-57
2024/01/30 14:50:00;;;;;;;17.50;13.20;;;;;;;7.34;78.74;102729.66;5550105;32;33445;-57
2024/01/30 14:53:04;;;;;;;17.10;12.15;;;;;;;7.37;72.78;102727.41;5549832;32;34324;-57
2024/01/30 14:56:07;;;;;;;16.50;11.85;;;;;;;7.32;63.41;102723.69;5549833;32;33501;-57
2024/01/30 14:59:09;;;;;;;14.73;11.75;;;;;;;7.27;65.42;102726.97;5562641;32;34356;-59
2024/01/30 15:02:13;;;;;;;19.85;12.05;;;;;;;7.27;67.18;102722.44;5569708;32;34301;-59
2024/01/30 15:05:16;;;;;;;16.67;11.60;;;;;;;7.23;69.74;102731.87;5569773;32;33625;-60
2024/01/30 15:08:18;;;;;;;16.58;11.82;;;;;;;7.24;78.89;102733.50;5568517;32;33635;-60
2024/01/30 15:11:21;;;;;;;16.55;11.82;;;;;;;7.18;64.12;102725.47;5564333;32;33743;-60
2024/01/30 15:14:24;;;;;;;16.48;12.25;;;;;;;7.09;71.66;102729.38;5560774;32;33757;-60
2024/01/30 15:17:26;;;;;;;16.85;11.75;;;;;;;7.11;68.41;102727.31;5566319;32;32320;-60
2024/01/30 15:20:31;;;;;;;20.08;12.43;;;;;;;7.03;66.41;102726.47;5558526;32;33682;-60
2024/01/30 15:23:33;;;;;;;18.70;12.18;;;;;;;6.93;67.27;102723.34;5568603;32;34305;-60
2024/01/30 15:26:36;;;;;;;17.58;13.00;;;;;;;6.91;66.15;102724.56;5568459;32;33229;-60
2024/01/30 15:29:38;;;;;;;29.35;22.65;;;;;;;6.79;71.96;102716.31;5569528;32;34361;-60
2024/01/30 15:32:40;;;;;;;21.25;15.82;;;;;;;6.67;68.14;102717.87;5569038;32;34430;-60
2024/01/30 15:35:43;;;;;;;21.35;13.65;;;;;;;6.67;66.28;102717.87;5568333;32;33654;-58
2024/01/30 15:38:45;;;;;;;18.25;13.68;;;;;;;6.63;71.72;102713.97;5568814;32;33832;-60
2024/01/30 15:41:48;;;;;;;20.58;14.02;;;;;;;6.70;84.96;102722.81;5569069;32;33665;-60
2024/01/30 15:44:50;;;;;;;20.40;14.60;;;;;;;6.74;90.62;102727.56;5568846;32;34439;-60
2024/01/30 15:47:53;;;;;;;20.05;13.60;;;;;;;6.66;68.34;102724.25;5568062;32;34288;-59
2024/01/30 15:50:55;;;;;;;19.87;13.82;;;;;;;6.58;71.75;102722.53;5569411;32;34241;-59
2024/01/30 15:53:58;;;;;;;20.60;13.32;;;;;;;6.44;72.97;102720.81;5568403;32;33741;-60
2024/01/30 15:57:00;;;;;;;23.70;13.90;;;;;;;6.36;68.26;102721.78;5569296;32;33886;-60
2024/01/30 16:00:03;;;;;;;22.48;14.73;;;;;;;6.27;73.86;102725.63;5566285;32;34280;-61
2024/01/30 16:03:12;;;;;;;22.67;14.73;;;;;;;6.16;73.74;102723.47;5568046;32;35191;-60
2024/01/30 16:06:15;;;;;;;23.33;14.52;;;;;;;6.10;70.47;102725.09;5568771;32;33605;-60
2024/01/30 16:09:17;;;;;;;19.80;14.82;;;;;;;6.06;69.36;102726.47;5568748;32;34051;-56
2024/01/30 16:12:20;;;;;;;30.37;15.52;;;;;;;6.02;70.36;102728.69;5568845;32;33574;-55
2024/01/30 16:15:22;;;;;;;21.12;14.45;;;;;;;5.86;69.78;102726.25;5569267;32;33797;-55
2024/01/30 16:18:26;;;;;;;23.65;15.55;;;;;;;5.73;72.62;102729.62;5568995;32;34303;-55
2024/01/30 16:21:28;;;;;;;23.70;14.50;;;;;;;5.72;69.83;102727.97;5569150;32;33739;-55
2024/01/30 16:24:31;;;;;;;26.33;16.75;;;;;;;5.64;70.06;102730.78;5569025;32;34232;-55
2024/01/30 16:27:33;;;;;;;26.05;16.70;;;;;;;5.46;82.19;102730.38;5568844;32;34343;-55
2024/01/30 16:30:35;;;;;;;45.35;17.75;;;;;;;5.30;77.51;102737.56;5568685;32;33949;-55
2024/01/30 16:33:38;;;;;;;30.60;17.45;;;;;;;5.31;73.49;102725.09;5568907;32;34384;-56
2024/01/30 16:36:43;;;;;;;30.92;17.85;;;;;;;5.46;72.12;102722.38;5569139;32;33597;-56
2024/01/30 16:39:45;;;;;;;25.67;17.83;;;;;;;5.40;71.99;102724.81;5568691;32;34393;-55
2024/01/30 16:42:48;;;;;;;22.58;15.27;;;;;;;5.34;71.54;102722.06;5569077;32;33555;-55
2024/01/30 16:45:50;;;;;;;24.83;16.60;;;;;;;5.25;98.52;102721.34;5568782;32;33729;-55
2024/01/30 16:48:53;;;;;;;26.67;17.52;;;;;;;5.07;74.88;102723.59;5568812;32;34312;-55
2024/01/30 16:51:55;;;;;;;26.60;17.12;;;;;;;5.11;72.68;102717.72;5568459;32;33764;-55
